createdAt,value
2023-04-10T00:01:36.384Z,1.10
2023-04-10T00:04:05.060Z,1.40
2023-04-10T00:06:33.728Z,1.00
2023-04-10T00:09:01.963Z,1.10
2023-04-10T00:11:31.043Z,1.30
2023-04-10T00:13:59.265Z,1.20
2023-04-10T00:16:27.686Z,1.20
2023-04-10T00:18:57.180Z,1.30
2023-04-10T00:21:25.270Z,3.50
2023-04-10T00:23:53.526Z,1.00
2023-04-10T00:26:23.922Z,1.10
2023-04-10T00:28:52.017Z,1.40
2023-04-10T00:31:20.212Z,1.10
2023-04-10T00:33:49.505Z,1.07
2023-04-10T00:36:20.007Z,1.30
2023-04-10T00:38:49.864Z,1.13
2023-04-10T00:41:19.034Z,1.47
2023-04-10T00:43:47.080Z,1.37
2023-04-10T00:46:15.390Z,1.60
2023-04-10T00:48:43.684Z,1.60
2023-04-10T00:51:13.717Z,1.80
2023-04-10T00:53:43.369Z,1.93
2023-04-10T00:56:11.493Z,2.13
2023-04-10T00:58:39.945Z,2.27
2023-04-10T01:01:08.927Z,1.80
2023-04-10T01:03:37.852Z,2.00
2023-04-10T01:06:13.889Z,1.70
2023-04-10T01:08:54.805Z,2.10
2023-04-10T01:11:31.075Z,2.30
2023-04-10T01:14:07.586Z,2.60
2023-04-10T01:16:44.520Z,2.03
2023-04-10T01:19:26.137Z,2.17
2023-04-10T01:21:56.183Z,2.10
2023-04-10T01:24:43.235Z,2.20
2023-04-10T01:27:18.746Z,2.17
2023-04-10T01:29:57.830Z,1.93
2023-04-10T01:32:26.857Z,2.10
2023-04-10T01:34:58.773Z,1.70
2023-04-10T01:37:36.439Z,2.17
2023-04-10T01:40:07.384Z,1.80
2023-04-10T01:42:40.402Z,2.10
2023-04-10T01:45:13.638Z,1.60
2023-04-10T01:47:41.807Z,1.53
2023-04-10T01:50:11.271Z,1.87
2023-04-10T01:52:39.591Z,1.77
2023-04-10T01:55:10.296Z,1.50
2023-04-10T01:57:38.438Z,1.73
2023-04-10T02:00:07.885Z,1.63
2023-04-10T02:02:38.726Z,1.73
2023-04-10T02:05:07.529Z,1.50
2023-04-10T02:07:46.718Z,1.17
2023-04-10T02:10:21.507Z,1.67
2023-04-10T02:12:55.772Z,1.17
2023-04-10T02:15:25.488Z,1.40
2023-04-10T02:17:57.493Z,1.20
2023-04-10T02:20:26.722Z,1.60
2023-04-10T02:22:55.742Z,1.23
2023-04-10T02:25:23.898Z,1.40
2023-04-10T02:27:52.026Z,1.33
2023-04-10T02:30:20.172Z,1.20
2023-04-10T02:32:48.436Z,1.30
2023-04-10T02:35:18.240Z,1.50
2023-04-10T02:37:47.747Z,1.57
2023-04-10T02:40:15.888Z,1.47
2023-04-10T02:42:44.231Z,1.40
2023-04-10T02:45:12.840Z,1.40
2023-04-10T02:47:41.557Z,1.10
2023-04-10T02:50:10.982Z,1.13
2023-04-10T02:52:40.861Z,1.17
2023-04-10T02:55:09.474Z,1.00
2023-04-10T02:57:37.637Z,1.00
2023-04-10T03:00:06.646Z,1.10
2023-04-10T03:02:40.053Z,1.10
2023-04-10T03:05:09.569Z,1.20
2023-04-10T03:07:38.443Z,1.00
2023-04-10T03:10:09.572Z,1.10
2023-04-10T03:12:37.705Z,1.30
2023-04-10T03:15:08.131Z,0.80
2023-04-10T03:17:36.317Z,1.20
2023-04-10T03:20:04.885Z,1.20
2023-04-10T03:22:33.231Z,1.17
2023-04-10T03:25:01.700Z,1.00
2023-04-10T03:27:35.175Z,1.30
2023-04-10T03:30:04.005Z,1.50
2023-04-10T03:32:32.466Z,1.30
2023-04-10T03:35:00.859Z,1.50
2023-04-10T03:37:32.223Z,1.40
2023-04-10T03:40:00.583Z,2.00
2023-04-10T03:42:28.724Z,1.93
2023-04-10T03:44:58.696Z,1.50
2023-04-10T03:47:27.473Z,2.60
2023-04-10T03:49:56.542Z,3.87
2023-04-10T03:52:25.297Z,3.87
2023-04-10T03:54:53.779Z,3.10
2023-04-10T03:57:21.972Z,2.40
2023-04-10T03:59:51.955Z,2.23
2023-04-10T04:02:22.974Z,2.87
2023-04-10T04:04:51.724Z,2.43
2023-04-10T04:07:20.003Z,1.90
2023-04-10T04:09:50.265Z,1.70
2023-04-10T04:12:18.218Z,1.90
2023-04-10T04:14:46.659Z,1.40
2023-04-10T04:17:15.233Z,1.50
2023-04-10T04:19:44.784Z,1.30
2023-04-10T04:22:13.548Z,1.50
2023-04-10T04:24:41.724Z,1.33
2023-04-10T04:27:10.261Z,1.43
2023-04-10T04:29:39.921Z,1.67
2023-04-10T04:32:17.465Z,1.80
2023-04-10T04:34:48.666Z,1.70
2023-04-10T04:37:17.442Z,2.87
2023-04-10T04:39:46.002Z,2.43
2023-04-10T04:42:14.154Z,2.67
2023-04-10T04:44:42.231Z,2.27
2023-04-10T04:47:10.662Z,3.10
2023-04-10T04:49:40.931Z,2.67
2023-04-10T04:52:54.047Z,2.83
2023-04-10T04:55:27.444Z,2.57
2023-04-10T04:58:19.956Z,2.60
2023-04-10T05:00:49.201Z,2.37
2023-04-10T05:03:18.052Z,1.93
2023-04-10T05:05:47.653Z,1.77
2023-04-10T05:08:16.517Z,1.57
2023-04-10T05:10:47.084Z,1.47
2023-04-10T05:13:16.046Z,1.30
2023-04-10T05:15:45.005Z,0.80
2023-04-10T05:18:14.278Z,0.80
2023-04-10T05:20:45.558Z,1.00
2023-04-10T05:23:14.243Z,0.80
2023-04-10T05:25:42.478Z,0.90
2023-04-10T05:28:12.301Z,0.53
2023-04-10T05:30:40.558Z,0.97
2023-04-10T05:33:09.086Z,1.13
2023-04-10T05:35:37.496Z,1.27
2023-04-10T05:38:05.578Z,1.20
2023-04-10T05:40:33.786Z,1.23
2023-04-10T05:43:02.099Z,1.17
2023-04-10T05:45:31.562Z,1.47
2023-04-10T05:47:59.587Z,1.43
2023-04-10T05:50:28.687Z,1.23
2023-04-10T05:52:58.676Z,1.30
2023-04-10T05:55:26.616Z,1.90
2023-04-10T05:57:54.678Z,2.80
2023-04-10T06:00:22.658Z,4.10
2023-04-10T06:02:52.812Z,4.17
2023-04-10T06:05:21.834Z,3.37
2023-04-10T06:07:49.966Z,2.70
2023-04-10T06:10:18.313Z,2.00
2023-04-10T06:12:47.026Z,2.53
2023-04-10T06:15:15.033Z,2.33
2023-04-10T06:17:44.479Z,3.27
2023-04-10T06:20:14.560Z,2.50
2023-04-10T06:22:42.695Z,2.10
2023-04-10T06:25:11.591Z,3.60
2023-04-10T06:27:39.980Z,3.23
2023-04-10T06:30:09.988Z,4.07
2023-04-10T06:32:38.649Z,2.57
2023-04-10T06:35:07.951Z,3.80
2023-04-10T06:37:37.652Z,4.63
2023-04-10T06:40:08.855Z,3.13
2023-04-10T06:42:37.824Z,3.43
2023-04-10T06:45:06.994Z,3.77
2023-04-10T06:47:35.818Z,2.53
2023-04-10T06:50:04.296Z,2.90
2023-04-10T06:52:33.996Z,3.57
2023-04-10T06:55:03.592Z,2.87
2023-04-10T06:57:33.003Z,2.37
2023-04-10T07:00:02.015Z,3.33
2023-04-10T07:02:31.187Z,2.83
2023-04-10T07:04:59.424Z,4.03
2023-04-10T07:07:30.038Z,3.50
2023-04-10T07:09:58.701Z,3.53
2023-04-10T07:12:29.438Z,3.83
2023-04-10T07:14:57.502Z,2.73
2023-04-10T07:17:26.231Z,4.90
2023-04-10T07:19:58.992Z,3.27
2023-04-10T07:22:31.534Z,3.03
2023-04-10T07:25:01.651Z,3.33
2023-04-10T07:27:31.369Z,3.97
2023-04-10T07:29:59.773Z,2.83
2023-04-10T07:32:28.525Z,3.63
2023-04-10T07:34:59.694Z,2.77
2023-04-10T07:37:27.848Z,2.77
2023-04-10T07:39:56.319Z,4.43
2023-04-10T07:42:25.156Z,4.53
2023-04-10T07:44:54.834Z,3.93
2023-04-10T07:47:25.324Z,4.10
2023-04-10T07:49:53.654Z,3.23
2023-04-10T07:52:21.699Z,4.90
2023-04-10T07:55:05.248Z,4.97
2023-04-10T07:57:33.632Z,4.57
2023-04-10T08:00:06.984Z,4.80
2023-04-10T08:02:37.560Z,2.80
2023-04-10T08:05:06.324Z,3.93
2023-04-10T08:07:36.567Z,3.27
2023-04-10T08:10:04.950Z,3.80
2023-04-10T08:12:38.362Z,3.57
2023-04-10T08:15:09.041Z,3.43
2023-04-10T08:17:39.832Z,5.07
2023-04-10T08:20:13.791Z,4.10
2023-04-10T08:22:42.903Z,2.83
2023-04-10T08:25:11.704Z,5.20
2023-04-10T08:27:40.514Z,3.80
2023-04-10T08:30:11.107Z,4.57
2023-04-10T08:32:42.688Z,3.70
2023-04-10T08:35:11.049Z,5.67
2023-04-10T08:37:39.342Z,3.73
2023-04-10T08:40:08.612Z,4.57
2023-04-10T08:42:37.568Z,4.53
2023-04-10T08:45:06.095Z,4.60
2023-04-10T08:47:37.998Z,4.90
2023-04-10T08:50:09.044Z,4.37
2023-04-10T08:52:44.952Z,4.73
2023-04-10T08:55:17.357Z,4.60
2023-04-10T08:57:54.363Z,5.37
2023-04-10T09:00:31.652Z,4.30
2023-04-10T09:03:03.152Z,4.63
2023-04-10T09:05:31.781Z,4.90
2023-04-10T09:07:59.944Z,4.07
2023-04-10T09:10:28.230Z,3.30
2023-04-10T09:12:56.771Z,3.13
2023-04-10T09:15:25.137Z,4.53
2023-04-10T09:17:58.018Z,3.90
2023-04-10T09:20:30.019Z,3.87
2023-04-10T09:22:58.575Z,4.00
2023-04-10T09:25:34.934Z,3.63
2023-04-10T09:28:09.329Z,3.33
2023-04-10T09:30:40.604Z,5.10
2023-04-10T09:33:27.602Z,3.77
2023-04-10T09:36:00.048Z,3.20
2023-04-10T09:38:28.135Z,4.90
2023-04-10T09:41:08.020Z,4.47
2023-04-10T09:43:36.711Z,3.93
2023-04-10T09:46:05.092Z,4.47
2023-04-10T09:48:33.182Z,4.40
2023-04-10T09:51:03.289Z,3.30
2023-04-10T09:53:31.596Z,4.37
2023-04-10T09:56:00.086Z,3.27
2023-04-10T09:58:34.880Z,3.67
2023-04-10T10:01:03.252Z,3.50
2023-04-10T10:03:31.607Z,3.87
2023-04-10T10:06:02.367Z,3.77
2023-04-10T10:08:34.882Z,4.03
2023-04-10T10:11:10.208Z,3.63
2023-04-10T10:13:45.757Z,2.60
2023-04-10T10:16:19.410Z,4.37
2023-04-10T10:18:57.849Z,4.00
2023-04-10T10:21:28.377Z,4.17
2023-04-10T10:24:00.476Z,3.57
2023-04-10T10:26:29.514Z,2.87
2023-04-10T10:28:59.394Z,4.33
2023-04-10T10:31:32.747Z,3.40
2023-04-10T10:34:05.742Z,2.83
2023-04-10T10:36:33.963Z,3.53
2023-04-10T10:39:18.755Z,3.87
2023-04-10T10:41:54.452Z,3.93
2023-04-10T10:44:31.237Z,2.50
2023-04-10T10:47:08.798Z,3.37
2023-04-10T10:49:57.431Z,4.00
2023-04-10T10:52:48.177Z,4.67
2023-04-10T10:55:36.247Z,3.27
2023-04-10T10:58:08.253Z,4.40
2023-04-10T11:01:10.771Z,3.67
2023-04-10T11:03:39.649Z,4.57
2023-04-10T11:06:09.886Z,3.97
2023-04-10T11:08:46.160Z,2.97
2023-04-10T11:11:18.745Z,3.70
2023-04-10T11:14:19.187Z,2.77
2023-04-10T11:16:49.008Z,3.10
2023-04-10T11:19:22.732Z,3.20
2023-04-10T11:22:09.331Z,4.43
2023-04-10T11:24:54.237Z,3.87
2023-04-10T11:27:44.947Z,3.53
2023-04-10T11:30:35.679Z,2.17
2023-04-10T11:33:05.588Z,3.67
2023-04-10T11:35:34.902Z,3.30
2023-04-10T11:38:17.336Z,3.37
2023-04-10T11:40:55.980Z,2.57
2023-04-10T11:43:25.656Z,2.00
2023-04-10T11:46:01.677Z,3.37
2023-04-10T11:48:30.507Z,3.63
2023-04-10T11:51:00.141Z,2.80
2023-04-10T11:53:30.421Z,2.90
2023-04-10T11:55:59.006Z,2.60
2023-04-10T11:58:30.684Z,2.70
2023-04-10T12:01:03.070Z,2.53
2023-04-10T12:03:40.198Z,2.57
2023-04-10T12:06:10.784Z,2.03
2023-04-10T12:08:40.488Z,2.23
2023-04-10T12:11:10.162Z,2.23
2023-04-10T12:13:40.295Z,4.03
2023-04-10T12:16:12.037Z,2.97
2023-04-10T12:18:40.643Z,2.13
2023-04-10T12:21:09.342Z,1.93
2023-04-10T12:23:40.232Z,2.83
2023-04-10T12:26:14.358Z,2.30
2023-04-10T12:28:52.373Z,2.27
2023-04-10T12:31:28.275Z,2.93
2023-04-10T12:33:58.125Z,2.60
2023-04-10T12:36:29.436Z,3.70
2023-04-10T12:38:58.357Z,2.70
2023-04-10T12:41:27.706Z,2.10
2023-04-10T12:44:10.541Z,3.20
2023-04-10T12:46:39.185Z,2.57
2023-04-10T12:49:11.703Z,3.43
2023-04-10T12:51:43.614Z,3.57
2023-04-10T12:54:12.403Z,3.47
2023-04-10T12:56:44.089Z,3.53
2023-04-10T12:59:13.679Z,3.30
2023-04-10T13:01:41.894Z,2.70
2023-04-10T13:04:10.103Z,2.67
2023-04-10T13:06:44.327Z,3.00
2023-04-10T13:09:13.308Z,3.37
2023-04-10T13:11:45.915Z,3.50
2023-04-10T13:14:17.299Z,3.17
2023-04-10T13:16:45.464Z,2.43
2023-04-10T13:19:14.154Z,3.27
2023-04-10T13:21:42.129Z,3.03
2023-04-10T13:24:10.410Z,3.10
2023-04-10T13:26:38.527Z,3.63
2023-04-10T13:29:07.055Z,2.83
2023-04-10T13:31:36.774Z,2.53
2023-04-10T13:34:06.150Z,3.37
2023-04-10T13:36:37.483Z,2.50
2023-04-10T13:39:05.902Z,2.43
2023-04-10T13:41:34.155Z,3.03
2023-04-10T13:44:02.329Z,3.60
2023-04-10T13:46:30.327Z,4.27
2023-04-10T13:48:59.988Z,2.80
2023-04-10T13:51:29.821Z,2.97
2023-04-10T13:53:58.031Z,3.83
2023-04-10T13:56:26.781Z,3.73
2023-04-10T13:58:55.217Z,2.67
2023-04-10T14:01:26.565Z,4.30
2023-04-10T14:03:54.764Z,3.17
2023-04-10T14:06:37.028Z,3.13
2023-04-10T14:09:15.538Z,3.23
2023-04-10T14:11:59.559Z,2.60
2023-04-10T14:14:28.067Z,3.37
2023-04-10T14:16:57.637Z,2.10
2023-04-10T14:19:28.346Z,2.63
2023-04-10T14:22:09.058Z,2.53
2023-04-10T14:24:37.323Z,2.73
2023-04-10T14:27:06.933Z,3.10
2023-04-10T14:29:42.750Z,1.73
2023-04-10T14:32:23.865Z,2.60
2023-04-10T14:34:52.773Z,1.80
2023-04-10T14:37:22.550Z,3.00
2023-04-10T14:39:51.764Z,2.77
2023-04-10T14:42:19.990Z,2.30
2023-04-10T14:44:48.852Z,2.00
2023-04-10T14:47:17.495Z,2.30
2023-04-10T14:49:52.049Z,2.30
2023-04-10T14:52:21.935Z,2.57
2023-04-10T14:54:51.432Z,2.27
2023-04-10T14:57:19.643Z,1.33
2023-04-10T14:59:47.879Z,2.17
2023-04-10T15:02:16.382Z,2.57
2023-04-10T15:04:47.322Z,2.50
2023-04-10T15:07:16.092Z,2.10
2023-04-10T15:09:46.770Z,2.83
2023-04-10T15:12:15.172Z,2.50
2023-04-10T15:14:43.558Z,3.07
2023-04-10T15:17:11.563Z,2.20
2023-04-10T15:19:39.970Z,3.03
2023-04-10T15:22:15.177Z,3.07
2023-04-10T15:24:49.965Z,3.17
2023-04-10T15:27:22.486Z,2.73
2023-04-10T15:29:50.955Z,2.90
2023-04-10T15:32:19.462Z,2.60
2023-04-10T15:34:47.608Z,2.70
2023-04-10T15:37:15.971Z,2.90
2023-04-10T15:39:44.076Z,3.27
2023-04-10T15:42:12.780Z,2.33
2023-04-10T15:44:42.505Z,3.30
2023-04-10T15:47:10.572Z,3.10
2023-04-10T15:49:39.425Z,2.40
2023-04-10T15:52:08.031Z,1.80
2023-04-10T15:54:36.619Z,4.30
2023-04-10T15:57:05.038Z,3.87
2023-04-10T15:59:34.474Z,4.57
2023-04-10T16:02:04.571Z,2.63
2023-04-10T16:04:32.944Z,3.83
2023-04-10T16:07:02.750Z,2.70
2023-04-10T16:09:31.495Z,3.00
2023-04-10T16:11:59.805Z,3.07
2023-04-10T16:14:28.224Z,4.40
2023-04-10T16:16:59.446Z,4.03
2023-04-10T16:19:31.479Z,2.87
2023-04-10T16:22:00.357Z,3.50
2023-04-10T16:24:30.758Z,3.23
2023-04-10T16:26:59.018Z,3.07
2023-04-10T16:29:27.398Z,2.73
2023-04-10T16:31:56.116Z,2.80
2023-04-10T16:34:37.175Z,3.27
2023-04-10T16:37:07.126Z,2.87
2023-04-10T16:39:35.644Z,1.77
2023-04-10T16:42:04.967Z,3.30
2023-04-10T16:44:33.894Z,2.23
2023-04-10T16:47:02.278Z,3.10
2023-04-10T16:49:30.913Z,3.83
2023-04-10T16:51:59.066Z,3.53
2023-04-10T16:54:28.778Z,3.30
2023-04-10T16:56:57.209Z,3.07
2023-04-10T16:59:25.853Z,4.00
2023-04-10T17:01:55.465Z,3.03
2023-04-10T17:04:24.056Z,3.67
2023-04-10T17:06:52.572Z,4.03
2023-04-10T17:09:21.562Z,3.43
2023-04-10T17:11:53.446Z,3.23
2023-04-10T17:14:21.860Z,4.33
2023-04-10T17:16:50.003Z,2.90
2023-04-10T17:19:18.679Z,2.47
2023-04-10T17:21:46.682Z,2.33
2023-04-10T17:24:14.722Z,2.77
2023-04-10T17:26:42.929Z,2.63
2023-04-10T17:29:12.462Z,2.53
2023-04-10T17:31:41.805Z,2.20
2023-04-10T17:34:10.086Z,2.40
2023-04-10T17:36:39.343Z,2.47
2023-04-10T17:39:07.897Z,3.93
2023-04-10T17:41:36.075Z,2.90
2023-04-10T17:44:05.786Z,3.17
2023-04-10T17:46:35.847Z,2.80
2023-04-10T17:49:07.904Z,3.50
2023-04-10T17:51:35.972Z,2.93
2023-04-10T17:54:33.852Z,3.03
2023-04-10T17:57:03.824Z,2.37
2023-04-10T17:59:32.345Z,3.53
2023-04-10T18:02:02.579Z,3.50
2023-04-10T18:04:32.013Z,3.30
2023-04-10T18:07:00.346Z,3.13
2023-04-10T18:09:32.779Z,2.80
2023-04-10T18:12:01.554Z,3.83
2023-04-10T18:14:33.138Z,2.83
2023-04-10T18:17:03.000Z,3.70
2023-04-10T18:19:31.633Z,3.53
2023-04-10T18:22:02.602Z,2.77
2023-04-10T18:24:31.000Z,2.00
2023-04-10T18:26:59.159Z,2.73
2023-04-10T18:29:27.616Z,2.63
2023-04-10T18:31:55.849Z,3.40
2023-04-10T18:34:25.843Z,2.27
2023-04-10T18:36:55.738Z,3.23
2023-04-10T18:39:24.162Z,3.77
2023-04-10T18:41:52.299Z,2.60
2023-04-10T18:44:20.358Z,3.53
2023-04-10T18:46:53.985Z,3.23
2023-04-10T18:49:31.316Z,2.93
2023-04-10T18:51:59.382Z,3.90
2023-04-10T18:54:28.212Z,3.63
2023-04-10T18:56:57.990Z,3.53
2023-04-10T18:59:26.129Z,2.17
2023-04-10T19:01:54.292Z,2.77
2023-04-10T19:04:22.523Z,3.53
2023-04-10T19:06:52.117Z,3.40
2023-04-10T19:09:20.260Z,2.80
2023-04-10T19:11:48.392Z,2.80
2023-04-10T19:14:16.608Z,2.70
2023-04-10T19:16:44.806Z,4.03
2023-04-10T19:19:13.097Z,2.80
2023-04-10T19:21:41.652Z,3.40
2023-04-10T19:24:12.549Z,3.37
2023-04-10T19:26:41.204Z,3.33
2023-04-10T19:29:10.115Z,2.80
2023-04-10T19:31:38.179Z,3.10
2023-04-10T19:34:09.397Z,4.13
2023-04-10T19:36:38.562Z,3.00
2023-04-10T19:39:06.910Z,2.70
2023-04-10T19:41:41.809Z,3.03
2023-04-10T19:44:10.792Z,2.40
2023-04-10T19:46:39.134Z,2.20
2023-04-10T19:49:11.642Z,1.83
2023-04-10T19:51:39.792Z,2.03
2023-04-10T19:54:08.383Z,2.23
2023-04-10T19:56:38.308Z,3.13
2023-04-10T19:59:06.532Z,2.53
2023-04-10T20:01:35.590Z,2.13
2023-04-10T20:04:03.832Z,2.30
2023-04-10T20:06:31.995Z,2.20
2023-04-10T20:09:00.134Z,2.33
2023-04-10T20:11:30.775Z,2.40
2023-04-10T20:14:00.410Z,2.97
2023-04-10T20:16:28.625Z,2.10
2023-04-10T20:18:57.513Z,1.87
2023-04-10T20:21:26.208Z,2.67
2023-04-10T20:23:57.762Z,2.97
2023-04-10T20:26:26.983Z,2.40
2023-04-10T20:28:55.593Z,2.40
2023-04-10T20:31:25.847Z,1.97
2023-04-10T20:33:54.558Z,2.33
2023-04-10T20:36:22.920Z,1.60
2023-04-10T20:38:51.135Z,2.40
2023-04-10T20:41:19.329Z,2.43
2023-04-10T20:43:47.686Z,2.00
2023-04-10T20:46:15.852Z,2.90
2023-04-10T20:48:45.526Z,2.50
2023-04-10T20:51:13.821Z,1.50
2023-04-10T20:53:42.014Z,2.70
2023-04-10T20:56:10.910Z,1.40
2023-04-10T20:58:39.148Z,2.23
2023-04-10T21:01:10.556Z,2.30
2023-04-10T21:03:39.121Z,2.00
2023-04-10T21:06:11.412Z,2.50
2023-04-10T21:08:39.719Z,2.13
2023-04-10T21:11:08.596Z,2.20
2023-04-10T21:13:38.495Z,2.47
2023-04-10T21:16:08.207Z,2.53
2023-04-10T21:18:36.474Z,2.00
2023-04-10T21:21:07.168Z,2.27
2023-04-10T21:23:41.567Z,2.57
2023-04-10T21:26:10.278Z,2.33
2023-04-10T21:28:38.671Z,1.83
2023-04-10T21:31:06.850Z,2.47
2023-04-10T21:33:34.925Z,2.17
2023-04-10T21:36:02.989Z,2.60
2023-04-10T21:38:31.147Z,2.20
2023-04-10T21:41:03.584Z,2.80
2023-04-10T21:43:31.990Z,3.00
2023-04-10T21:46:02.169Z,2.00
2023-04-10T21:48:31.351Z,1.63
2023-04-10T21:50:59.454Z,2.70
2023-04-10T21:53:27.604Z,1.87
2023-04-10T21:55:55.701Z,2.47
2023-04-10T21:58:25.301Z,2.20
2023-04-10T22:00:55.171Z,1.63
2023-04-10T22:03:24.172Z,3.77
2023-04-10T22:05:52.484Z,3.00
2023-04-10T22:08:22.180Z,3.13
2023-04-10T22:10:51.404Z,2.13
2023-04-10T22:13:30.335Z,2.50
2023-04-10T22:16:02.506Z,2.00
2023-04-10T22:18:30.779Z,2.87
2023-04-10T22:20:59.230Z,3.30
2023-04-10T22:23:27.405Z,1.60
2023-04-10T22:25:55.508Z,2.43
2023-04-10T22:28:23.789Z,3.23
2023-04-10T22:30:51.876Z,3.17
2023-04-10T22:33:21.521Z,3.90
2023-04-10T22:35:49.524Z,3.07
2023-04-10T22:38:17.610Z,3.03
2023-04-10T22:40:45.688Z,2.47
2023-04-10T22:43:13.828Z,3.03
2023-04-10T22:45:43.573Z,3.70
2023-04-10T22:48:11.773Z,2.30
2023-04-10T22:50:41.370Z,2.63
2023-04-10T22:53:11.670Z,3.87
2023-04-10T22:55:40.125Z,2.53
2023-04-10T22:58:08.902Z,2.93
2023-04-10T23:00:37.158Z,3.27
2023-04-10T23:03:05.534Z,2.90
2023-04-10T23:05:34.385Z,2.00
2023-04-10T23:08:04.093Z,2.23
2023-04-10T23:10:32.138Z,2.67
2023-04-10T23:13:00.174Z,2.13
2023-04-10T23:15:28.151Z,2.70
2023-04-10T23:17:56.424Z,2.87
2023-04-10T23:20:24.619Z,2.50
2023-04-10T23:22:52.976Z,3.43
2023-04-10T23:25:22.895Z,3.10
2023-04-10T23:27:52.689Z,2.63
2023-04-10T23:30:20.729Z,3.00
2023-04-10T23:32:48.930Z,1.77
2023-04-10T23:35:17.258Z,3.23
2023-04-10T23:37:45.364Z,2.70
2023-04-10T23:40:14.225Z,2.27
2023-04-10T23:42:45.230Z,1.83
2023-04-10T23:45:13.971Z,2.17
2023-04-10T23:47:42.048Z,1.47
2023-04-10T23:50:11.081Z,2.43
2023-04-10T23:52:39.129Z,1.50
2023-04-10T23:55:08.093Z,2.83
2023-04-10T23:57:36.170Z,2.33
